createdAt,value
2022-11-07T05:58:50.632Z,14.00
2022-11-07T05:59:54.092Z,14.00
2022-11-07T06:01:02.165Z,14.00
2022-11-07T06:02:04.398Z,14.00
2022-11-07T06:03:08.960Z,14.00
2022-11-07T06:04:12.500Z,14.00
2022-11-07T06:05:14.684Z,14.00
2022-11-07T06:06:17.840Z,14.00
2022-11-07T06:07:19.912Z,14.10
2022-11-07T06:08:23.103Z,14.10
2022-11-07T06:09:25.230Z,14.00
2022-11-07T06:10:28.357Z,14.00
2022-11-07T06:11:33.100Z,14.10
2022-11-07T06:12:35.265Z,14.10
2022-11-07T06:13:38.370Z,14.10
2022-11-07T06:14:40.500Z,14.10
2022-11-07T06:15:46.303Z,14.10
2022-11-07T06:16:49.590Z,14.10
2022-11-07T06:17:51.799Z,14.10
2022-11-07T06:18:54.906Z,14.10
2022-11-07T06:19:56.988Z,14.10
2022-11-07T06:21:02.654Z,14.20
2022-11-07T06:22:04.747Z,14.20
2022-11-07T06:23:08.503Z,14.20
2022-11-07T06:24:15.317Z,14.20
2022-11-07T06:25:17.767Z,14.20
2022-11-07T06:26:21.015Z,14.20
2022-11-07T06:27:23.461Z,14.20
2022-11-07T06:28:27.148Z,14.20
2022-11-07T06:29:29.278Z,14.20
2022-11-07T06:30:33.787Z,14.20
2022-11-07T06:31:38.417Z,14.30
2022-11-07T06:32:44.154Z,14.20
2022-11-07T06:33:49.966Z,14.30
2022-11-07T06:34:52.253Z,14.20
2022-11-07T06:35:55.357Z,14.30
2022-11-07T06:37:02.788Z,14.30
2022-11-07T06:38:11.315Z,14.30
2022-11-07T06:39:14.459Z,14.30
2022-11-07T06:40:16.791Z,14.30
2022-11-07T06:41:20.417Z,14.30
2022-11-07T06:42:25.770Z,14.40
2022-11-07T06:43:33.587Z,14.40
2022-11-07T06:44:35.966Z,14.40
2022-11-07T06:45:39.680Z,14.40
2022-11-07T06:46:46.934Z,14.50
2022-11-07T06:47:50.075Z,14.50
2022-11-07T06:48:54.151Z,14.60
2022-11-07T06:49:56.373Z,14.60
2022-11-07T06:51:00.485Z,14.60
2022-11-07T06:52:02.670Z,14.70
2022-11-07T06:53:08.612Z,14.70
2022-11-07T06:54:11.423Z,14.70
2022-11-07T06:55:14.578Z,14.70
2022-11-07T06:56:17.987Z,14.70
2022-11-07T06:57:20.098Z,14.70
2022-11-07T06:58:24.078Z,14.80
2022-11-07T06:59:26.185Z,14.80
2022-11-07T07:00:30.223Z,14.80
2022-11-07T07:01:38.529Z,14.80
2022-11-07T07:02:57.925Z,14.80
2022-11-07T07:04:01.762Z,14.80
2022-11-07T07:05:04.328Z,14.80
2022-11-07T07:06:10.861Z,14.80
2022-11-07T07:07:13.023Z,14.80
2022-11-07T07:08:16.534Z,14.80
2022-11-07T07:09:20.434Z,14.80
2022-11-07T07:10:25.170Z,14.90
2022-11-07T07:11:28.531Z,14.80
2022-11-07T07:12:30.711Z,14.80
2022-11-07T07:13:33.920Z,14.80
2022-11-07T07:14:36.984Z,14.80
2022-11-07T07:15:50.310Z,14.80
2022-11-07T07:16:54.187Z,14.80
2022-11-07T07:18:00.873Z,14.80
2022-11-07T07:19:04.245Z,14.90
2022-11-07T07:20:07.397Z,14.90
2022-11-07T07:21:12.432Z,14.80
2022-11-07T07:22:14.717Z,14.90
2022-11-07T07:23:19.361Z,14.90
2022-11-07T07:24:21.811Z,14.90
2022-11-07T07:25:25.511Z,15.00
2022-11-07T07:26:28.433Z,15.00
2022-11-07T07:27:31.548Z,15.00
2022-11-07T07:28:34.938Z,15.00
2022-11-07T07:29:37.047Z,15.10
2022-11-07T07:30:40.195Z,15.10
2022-11-07T07:31:43.304Z,15.10
2022-11-07T07:32:45.411Z,15.10
2022-11-07T07:33:50.381Z,15.10
2022-11-07T07:34:52.504Z,15.10
2022-11-07T07:35:55.601Z,15.10
2022-11-07T07:36:57.717Z,15.20
2022-11-07T07:38:00.814Z,15.20
2022-11-07T07:39:03.953Z,15.30
2022-11-07T07:40:07.223Z,15.30
2022-11-07T07:41:10.697Z,15.30
2022-11-07T07:42:12.778Z,15.30
2022-11-07T07:43:16.353Z,15.30
2022-11-07T07:44:19.697Z,15.30
2022-11-07T07:45:21.809Z,15.40
2022-11-07T07:46:25.002Z,15.40
2022-11-07T07:47:27.169Z,15.40
2022-11-07T07:48:31.124Z,15.50
2022-11-07T07:49:35.601Z,15.50
2022-11-07T07:50:37.709Z,15.50
2022-11-07T07:51:40.817Z,15.60
2022-11-07T07:52:42.935Z,15.60
2022-11-07T07:53:45.999Z,15.70
2022-11-07T07:54:48.497Z,15.70
2022-11-07T07:55:52.028Z,15.70
2022-11-07T07:56:55.105Z,15.80
2022-11-07T07:57:58.261Z,15.80
2022-11-07T07:59:02.577Z,15.80
2022-11-07T08:00:06.372Z,15.80
2022-11-07T08:01:10.753Z,15.90
2022-11-07T08:02:14.073Z,16.00
2022-11-07T08:03:17.763Z,15.90
2022-11-07T08:04:20.194Z,16.00
2022-11-07T08:05:24.651Z,16.00
2022-11-07T08:06:27.757Z,16.00
2022-11-07T08:07:29.884Z,16.00
2022-11-07T08:08:37.935Z,16.00
2022-11-07T08:09:41.825Z,16.10
2022-11-07T08:10:43.924Z,16.10
2022-11-07T08:11:47.093Z,16.10
2022-11-07T08:12:51.073Z,16.10
2022-11-07T08:13:58.394Z,16.10
2022-11-07T08:15:03.070Z,16.10
2022-11-07T08:16:08.537Z,16.10
2022-11-07T08:17:10.598Z,16.10
2022-11-07T08:18:13.662Z,16.10
2022-11-07T08:19:16.861Z,16.10
2022-11-07T08:20:20.315Z,16.10
2022-11-07T08:21:24.805Z,16.10
2022-11-07T08:22:27.981Z,16.10
2022-11-07T08:23:31.118Z,16.20
2022-11-07T08:24:34.540Z,16.20
2022-11-07T08:25:38.641Z,16.20
2022-11-07T08:26:42.039Z,16.30
2022-11-07T08:27:44.274Z,16.40
2022-11-07T08:28:48.019Z,16.40
2022-11-07T08:29:50.222Z,16.50
2022-11-07T08:30:57.679Z,16.50
2022-11-07T08:32:00.770Z,16.60
2022-11-07T08:33:03.870Z,16.60
2022-11-07T08:34:07.166Z,16.70
2022-11-07T08:35:09.909Z,16.70
2022-11-07T08:36:13.091Z,16.70
2022-11-07T08:37:16.794Z,16.80
2022-11-07T08:38:19.939Z,16.70
2022-11-07T08:39:22.186Z,16.70
2022-11-07T08:40:25.842Z,16.70
2022-11-07T08:41:29.244Z,16.80
2022-11-07T08:42:31.353Z,16.80
2022-11-07T08:43:34.555Z,16.80
2022-11-07T08:44:38.306Z,16.80
2022-11-07T08:45:41.363Z,16.90
2022-11-07T08:46:44.521Z,16.90
2022-11-07T08:47:46.631Z,16.90
2022-11-07T08:48:50.068Z,17.00
2022-11-07T08:49:52.191Z,17.00
2022-11-07T08:50:56.668Z,17.10
2022-11-07T08:52:00.562Z,17.20
2022-11-07T08:53:05.174Z,17.20
2022-11-07T08:54:08.366Z,17.30
2022-11-07T08:55:10.888Z,17.30
2022-11-07T08:56:14.357Z,17.30
2022-11-07T08:57:16.472Z,17.40
2022-11-07T08:58:20.060Z,17.50
2022-11-07T08:59:23.089Z,17.50
2022-11-07T09:00:26.395Z,17.50
2022-11-07T09:01:29.722Z,17.50
2022-11-07T09:03:08.749Z,17.50
2022-11-07T09:03:58.183Z,17.50
2022-11-07T09:05:00.781Z,17.50
2022-11-07T09:06:04.852Z,17.50
2022-11-07T09:07:06.944Z,17.50
2022-11-07T09:08:11.402Z,17.50
2022-11-07T09:09:16.675Z,17.50
2022-11-07T09:10:20.128Z,17.50
2022-11-07T09:11:23.760Z,17.60
2022-11-07T09:12:25.981Z,17.50
2022-11-07T09:13:29.051Z,17.50
2022-11-07T09:14:31.270Z,17.50
2022-11-07T09:15:34.357Z,17.60
2022-11-07T09:16:37.485Z,17.60
2022-11-07T09:17:39.648Z,17.60
2022-11-07T09:18:42.748Z,17.60
2022-11-07T09:19:45.832Z,17.60
2022-11-07T09:20:48.971Z,17.70
2022-11-07T09:21:52.079Z,17.60
2022-11-07T09:22:56.631Z,17.60
2022-11-07T09:24:01.149Z,17.60
2022-11-07T09:25:04.086Z,17.60
2022-11-07T09:26:07.838Z,17.60
2022-11-07T09:27:10.922Z,17.70
2022-11-07T09:28:13.417Z,17.70
2022-11-07T09:29:16.560Z,17.70
2022-11-07T09:30:20.173Z,17.80
2022-11-07T09:31:23.801Z,17.80
2022-11-07T09:32:43.814Z,17.80
2022-11-07T09:33:47.962Z,17.80
2022-11-07T09:34:55.986Z,17.80
2022-11-07T09:36:02.304Z,17.80
2022-11-07T09:37:05.412Z,17.80
2022-11-07T09:38:07.569Z,17.70
2022-11-07T09:39:12.026Z,17.70
2022-11-07T09:40:30.425Z,17.60
2022-11-07T09:41:49.673Z,17.60
2022-11-07T09:43:08.478Z,17.60
2022-11-07T09:44:28.056Z,17.50
2022-11-07T09:45:46.477Z,17.60
2022-11-07T09:47:00.161Z,17.50
2022-11-07T09:48:07.796Z,17.50
2022-11-07T09:49:17.788Z,17.40
2022-11-07T09:50:30.117Z,17.50
2022-11-07T09:51:38.167Z,17.40
2022-11-07T09:52:49.710Z,17.40
2022-11-07T09:54:00.075Z,17.40
2022-11-07T09:55:14.634Z,17.40
2022-11-07T09:56:16.862Z,17.50
2022-11-07T09:57:21.422Z,17.50
2022-11-07T09:58:29.736Z,17.50
2022-11-07T09:59:41.237Z,17.60
2022-11-07T10:00:43.438Z,17.50
2022-11-07T10:01:46.818Z,17.60
2022-11-07T10:02:55.194Z,17.60
2022-11-07T10:04:23.528Z,17.60
2022-11-07T10:05:37.796Z,17.60
2022-11-07T10:06:49.196Z,17.70
2022-11-07T10:08:04.657Z,17.60
2022-11-07T10:09:17.998Z,17.60
2022-11-07T10:10:34.637Z,17.60
2022-11-07T10:11:43.120Z,17.60
2022-11-07T10:13:11.028Z,17.70
2022-11-07T10:14:28.184Z,17.70
2022-11-07T10:15:46.061Z,17.80
2022-11-07T10:17:03.983Z,17.80
2022-11-07T10:18:26.132Z,17.70
2022-11-07T10:19:41.746Z,17.80
2022-11-07T10:21:16.165Z,17.90
2022-11-07T10:22:42.965Z,18.00
2022-11-07T10:24:03.799Z,18.00
2022-11-07T10:25:22.183Z,18.10
2022-11-07T10:26:29.901Z,18.20
2022-11-07T10:27:33.086Z,18.20
2022-11-07T10:28:45.701Z,18.20
2022-11-07T10:29:52.437Z,18.20
2022-11-07T10:31:01.786Z,18.30
2022-11-07T10:32:19.648Z,18.30
2022-11-07T10:33:37.580Z,18.40
2022-11-07T10:34:51.601Z,18.50
2022-11-07T10:36:03.150Z,18.50
2022-11-07T10:37:06.321Z,18.60
2022-11-07T10:38:19.469Z,18.60
2022-11-07T10:39:22.674Z,18.80
2022-11-07T10:40:31.591Z,18.80
2022-11-07T10:41:39.391Z,18.80
2022-11-07T10:42:43.318Z,18.90
2022-11-07T10:43:52.922Z,18.80
2022-11-07T10:44:59.685Z,18.80
2022-11-07T10:46:03.519Z,18.80
2022-11-07T10:47:16.810Z,18.80
2022-11-07T10:48:19.193Z,18.80
2022-11-07T10:49:24.627Z,18.80
2022-11-07T10:50:27.508Z,18.80
2022-11-07T10:51:39.021Z,18.90
2022-11-07T10:52:42.040Z,18.90
2022-11-07T10:53:46.507Z,18.90
2022-11-07T10:54:49.646Z,19.00
2022-11-07T10:55:54.728Z,19.10
2022-11-07T10:57:04.588Z,19.10
2022-11-07T10:58:07.923Z,19.00
2022-11-07T10:59:14.132Z,18.90
2022-11-07T11:00:26.425Z,18.90
2022-11-07T11:01:29.794Z,18.80
2022-11-07T11:02:46.840Z,18.80
2022-11-07T11:03:50.113Z,18.80
2022-11-07T11:04:55.472Z,18.80
2022-11-07T11:06:08.196Z,18.80
2022-11-07T11:07:14.306Z,18.80
2022-11-07T11:08:20.348Z,18.80
2022-11-07T11:09:26.192Z,18.80
2022-11-07T11:10:31.636Z,18.80
2022-11-07T11:11:37.007Z,18.70
2022-11-07T11:12:46.562Z,18.70
2022-11-07T11:13:50.505Z,18.60
2022-11-07T11:15:05.651Z,18.60
2022-11-07T11:16:24.682Z,18.60
2022-11-07T11:17:27.936Z,18.70
2022-11-07T11:18:30.218Z,18.70
2022-11-07T11:19:42.052Z,18.60
2022-11-07T11:20:54.696Z,18.60
2022-11-07T11:22:00.647Z,18.60
2022-11-07T11:23:07.554Z,18.50
2022-11-07T11:24:19.892Z,18.50
2022-11-07T11:25:24.437Z,18.50
2022-11-07T11:26:33.925Z,18.50
2022-11-07T11:27:41.289Z,18.50
2022-11-07T11:28:48.539Z,18.40
2022-11-07T11:29:59.173Z,18.40
2022-11-07T11:31:05.475Z,18.30
2022-11-07T11:32:24.484Z,18.30
2022-11-07T11:33:38.021Z,18.40
2022-11-07T11:34:59.062Z,18.40
2022-11-07T11:36:10.704Z,18.40
2022-11-07T11:37:18.553Z,18.40
2022-11-07T11:38:28.281Z,18.50
2022-11-07T11:39:40.490Z,18.60
2022-11-07T11:40:50.760Z,18.60
2022-11-07T11:41:57.314Z,18.70
2022-11-07T11:43:18.362Z,18.80
2022-11-07T11:44:31.351Z,18.80
2022-11-07T11:45:52.083Z,18.80
2022-11-07T11:47:05.337Z,18.80
2022-11-07T11:48:23.601Z,18.90
2022-11-07T11:49:35.245Z,18.90
2022-11-07T11:50:46.300Z,18.90
2022-11-07T11:51:55.115Z,19.00
2022-11-07T11:52:59.963Z,19.00
2022-11-07T11:54:04.043Z,19.10
2022-11-07T11:55:15.102Z,19.20
2022-11-07T11:56:31.105Z,19.20
2022-11-07T11:57:46.723Z,19.20
2022-11-07T11:59:02.749Z,19.20
2022-11-07T12:00:20.447Z,19.20
2022-11-07T12:01:34.857Z,19.20
2022-11-07T12:03:02.106Z,19.20
2022-11-07T12:04:29.701Z,19.20
2022-11-07T12:06:10.790Z,19.10
2022-11-07T12:07:38.171Z,19.00
2022-11-07T12:09:13.986Z,19.00
2022-11-07T12:10:30.418Z,18.90
2022-11-07T12:11:44.093Z,18.80
2022-11-07T12:13:00.511Z,18.80
2022-11-07T12:14:22.310Z,18.80
2022-11-07T12:15:39.821Z,18.80
2022-11-07T12:16:53.609Z,18.70
2022-11-07T12:18:04.452Z,18.70
2022-11-07T12:19:24.431Z,18.70
2022-11-07T12:20:33.939Z,18.70
2022-11-07T12:21:49.302Z,18.60
2022-11-07T12:23:17.893Z,18.60
2022-11-07T12:24:39.108Z,18.60
2022-11-07T12:25:51.334Z,18.50
2022-11-07T12:27:06.861Z,18.60
2022-11-07T12:28:29.153Z,18.60
2022-11-07T12:29:52.116Z,18.70
2022-11-07T12:31:08.097Z,18.70
2022-11-07T12:32:19.431Z,18.70
2022-11-07T12:33:34.840Z,18.80
2022-11-07T12:35:02.684Z,18.80
2022-11-07T12:36:18.470Z,18.90
2022-11-07T12:37:59.948Z,18.90
2022-11-07T12:39:20.441Z,18.90
2022-11-07T12:40:36.092Z,18.90
2022-11-07T12:41:51.675Z,18.80
2022-11-07T12:43:13.652Z,18.80
2022-11-07T12:44:38.243Z,18.80
2022-11-07T12:45:52.490Z,18.90
2022-11-07T12:46:59.118Z,18.90
2022-11-07T12:48:28.986Z,18.80
2022-11-07T12:49:59.510Z,18.80
2022-11-07T12:51:15.506Z,18.80
2022-11-07T12:52:36.040Z,18.80
2022-11-07T12:53:52.904Z,18.80
2022-11-07T12:55:03.265Z,18.70
2022-11-07T12:56:13.131Z,18.70
2022-11-07T12:57:20.316Z,18.60
2022-11-07T12:58:27.045Z,18.50
2022-11-07T12:59:34.483Z,18.50
2022-11-07T13:00:39.219Z,18.50
2022-11-07T13:01:53.241Z,18.40
2022-11-07T13:03:15.511Z,18.40
2022-11-07T13:04:29.137Z,18.30
2022-11-07T13:05:50.143Z,18.40
2022-11-07T13:07:00.953Z,18.30
2022-11-07T13:08:13.169Z,18.30
2022-11-07T13:09:29.877Z,18.40
2022-11-07T13:10:44.454Z,18.30
2022-11-07T13:11:55.976Z,18.40
2022-11-07T13:13:04.090Z,18.30
2022-11-07T13:14:24.635Z,18.30
2022-11-07T13:15:31.808Z,18.30
2022-11-07T13:16:52.744Z,18.30
2022-11-07T13:17:55.945Z,18.40
2022-11-07T13:19:32.798Z,18.30
2022-11-07T13:20:36.463Z,18.40
2022-11-07T13:21:43.488Z,18.40
2022-11-07T13:22:46.898Z,18.40
2022-11-07T13:23:50.568Z,18.30
2022-11-07T13:25:09.436Z,18.40
2022-11-07T13:26:44.973Z,18.40
2022-11-07T13:27:42.965Z,18.40
2022-11-07T13:28:58.134Z,18.40
2022-11-07T13:30:19.566Z,18.40
2022-11-07T13:31:38.506Z,18.40
2022-11-07T13:32:43.727Z,18.40
2022-11-07T13:33:46.912Z,18.40
2022-11-07T13:34:54.446Z,18.50
2022-11-07T13:36:00.348Z,18.50
2022-11-07T13:37:05.988Z,18.50
2022-11-07T13:38:14.885Z,18.40
2022-11-07T13:39:19.141Z,18.40
2022-11-07T13:40:28.014Z,18.40
2022-11-07T13:41:31.752Z,18.40
2022-11-07T13:42:36.672Z,18.40
2022-11-07T13:43:43.292Z,18.40
2022-11-07T13:44:54.662Z,18.40
2022-11-07T13:46:00.897Z,18.40
2022-11-07T13:47:10.412Z,18.40
2022-11-07T13:48:21.026Z,18.40
2022-11-07T13:49:29.315Z,18.40
2022-11-07T13:50:41.585Z,18.40
2022-11-07T13:51:48.560Z,18.50
2022-11-07T13:52:59.272Z,18.50
2022-11-07T13:54:14.874Z,18.60
2022-11-07T13:55:23.721Z,18.60
2022-11-07T13:56:34.716Z,18.60
2022-11-07T13:57:42.652Z,18.60
2022-11-07T13:58:45.758Z,18.60
2022-11-07T13:59:54.845Z,18.50
2022-11-07T14:01:05.825Z,18.50
2022-11-07T14:02:20.699Z,18.50
2022-11-07T14:03:29.217Z,18.50
2022-11-07T14:04:44.610Z,18.50
2022-11-07T14:05:58.975Z,18.60
2022-11-07T14:07:04.385Z,18.60
2022-11-07T14:08:16.999Z,18.60
2022-11-07T14:09:22.397Z,18.60
2022-11-07T14:10:30.645Z,18.60
2022-11-07T14:11:38.026Z,18.60
2022-11-07T14:12:41.341Z,18.60
2022-11-07T14:13:47.352Z,18.60
2022-11-07T14:14:53.348Z,18.60
2022-11-07T14:16:00.836Z,18.60
2022-11-07T14:17:04.469Z,18.60
2022-11-07T14:18:08.303Z,18.60
2022-11-07T14:19:17.512Z,18.60
2022-11-07T14:20:21.117Z,18.60
2022-11-07T14:21:27.440Z,18.60
2022-11-07T14:22:29.518Z,18.60
2022-11-07T14:23:34.126Z,18.50
2022-11-07T14:24:37.608Z,18.50
2022-11-07T14:25:40.664Z,18.50
2022-11-07T14:26:44.043Z,18.50
2022-11-07T14:27:46.621Z,18.50
2022-11-07T14:28:51.407Z,18.60
2022-11-07T14:29:54.264Z,18.60
2022-11-07T14:30:57.479Z,18.50
2022-11-07T14:32:02.532Z,18.50
2022-11-07T14:33:07.398Z,18.50
2022-11-07T14:34:20.817Z,18.50
2022-11-07T14:35:26.875Z,18.40
2022-11-07T14:36:31.400Z,18.40
2022-11-07T14:37:36.643Z,18.40
2022-11-07T14:38:47.150Z,18.40
2022-11-07T14:39:50.111Z,18.30
2022-11-07T14:40:55.478Z,18.30
2022-11-07T14:42:01.900Z,18.30
2022-11-07T14:43:04.757Z,18.30
2022-11-07T14:44:12.894Z,18.30
2022-11-07T14:45:39.196Z,18.30
2022-11-07T14:46:43.411Z,18.30
2022-11-07T14:47:48.364Z,18.30
2022-11-07T14:48:52.283Z,18.30
2022-11-07T14:49:57.130Z,18.30
2022-11-07T14:51:01.961Z,18.30
2022-11-07T14:52:05.941Z,18.30
2022-11-07T14:53:15.060Z,18.40
2022-11-07T14:54:21.996Z,18.40
2022-11-07T14:55:31.351Z,18.30
2022-11-07T14:56:40.507Z,18.30
2022-11-07T14:57:42.767Z,18.30
2022-11-07T14:58:47.397Z,18.30
2022-11-07T14:59:49.837Z,18.30
2022-11-07T15:00:56.046Z,18.30
2022-11-07T15:02:04.606Z,18.30
2022-11-07T15:03:07.959Z,18.40
2022-11-07T15:04:24.622Z,18.40
2022-11-07T15:05:31.846Z,18.40
2022-11-07T15:06:43.949Z,18.40
2022-11-07T15:07:50.924Z,18.30
2022-11-07T15:08:59.971Z,18.40
2022-11-07T15:10:19.373Z,18.40
2022-11-07T15:11:29.982Z,18.40
2022-11-07T15:12:49.904Z,18.40
2022-11-07T15:13:54.090Z,18.40
2022-11-07T15:15:10.059Z,18.40
2022-11-07T15:16:18.088Z,18.40
2022-11-07T15:17:24.522Z,18.40
2022-11-07T15:18:29.002Z,18.40
2022-11-07T15:19:35.676Z,18.40
2022-11-07T15:20:40.889Z,18.40
2022-11-07T15:21:53.437Z,18.30
2022-11-07T15:22:56.619Z,18.30
2022-11-07T15:24:01.879Z,18.30
2022-11-07T15:25:24.287Z,18.30
2022-11-07T15:26:32.875Z,18.30
2022-11-07T15:27:40.182Z,18.20
2022-11-07T15:28:48.264Z,18.20
2022-11-07T15:29:53.002Z,18.30
2022-11-07T15:30:59.125Z,18.30
2022-11-07T15:32:11.580Z,18.30
2022-11-07T15:33:17.066Z,18.30
2022-11-07T15:34:33.928Z,18.30
2022-11-07T15:35:49.784Z,18.30
2022-11-07T15:36:53.007Z,18.30
2022-11-07T15:37:57.372Z,18.30
2022-11-07T15:39:00.766Z,18.30
2022-11-07T15:40:10.159Z,18.30
2022-11-07T15:41:13.619Z,18.30
2022-11-07T15:42:16.178Z,18.20
2022-11-07T15:43:19.825Z,18.20
2022-11-07T15:44:21.991Z,18.20
2022-11-07T15:45:25.619Z,18.20
2022-11-07T15:46:36.156Z,18.10
2022-11-07T15:47:38.809Z,18.20
2022-11-07T15:48:43.332Z,18.10
2022-11-07T15:49:46.024Z,18.10
2022-11-07T15:50:51.257Z,18.10
2022-11-07T15:51:53.416Z,18.10
2022-11-07T15:52:56.607Z,18.10
2022-11-07T15:53:59.096Z,18.10
2022-11-07T15:55:02.252Z,18.10
2022-11-07T15:56:29.162Z,18.00
2022-11-07T15:57:33.537Z,18.00
2022-11-07T15:58:36.779Z,18.00
2022-11-07T15:59:39.970Z,17.90
2022-11-07T16:00:42.418Z,17.90
2022-11-07T16:01:45.759Z,17.90
2022-11-07T16:02:48.787Z,17.90
2022-11-07T16:03:52.123Z,17.90
2022-11-07T16:04:54.240Z,17.90
2022-11-07T16:06:02.060Z,17.90
2022-11-07T16:07:05.339Z,17.90
2022-11-07T16:08:09.511Z,17.90
2022-11-07T16:09:16.138Z,17.80
2022-11-07T16:10:21.603Z,17.80
2022-11-07T16:11:24.911Z,17.80
2022-11-07T16:12:26.988Z,17.70
2022-11-07T16:13:30.243Z,17.70
2022-11-07T16:14:49.089Z,17.70
2022-11-07T16:15:59.448Z,17.70
2022-11-07T16:17:03.396Z,17.60
2022-11-07T16:18:06.832Z,17.60
2022-11-07T16:19:15.611Z,17.50
2022-11-07T16:20:21.723Z,17.50
2022-11-07T16:21:26.205Z,17.50
2022-11-07T16:22:28.399Z,17.50
2022-11-07T16:23:31.635Z,17.50
2022-11-07T16:24:34.787Z,17.40
2022-11-07T16:25:40.663Z,17.40
2022-11-07T16:26:47.303Z,17.50
2022-11-07T16:27:53.864Z,17.50
2022-11-07T16:28:57.391Z,17.40
2022-11-07T16:30:00.489Z,17.40
2022-11-07T16:31:03.767Z,17.40
2022-11-07T16:32:07.038Z,17.40
2022-11-07T16:33:12.043Z,17.40
2022-11-07T16:34:15.163Z,17.40
2022-11-07T16:35:19.747Z,17.40
2022-11-07T16:36:28.538Z,17.40
2022-11-07T16:37:31.741Z,17.40
2022-11-07T16:38:36.257Z,17.40
2022-11-07T16:39:39.448Z,17.40
2022-11-07T16:40:42.578Z,17.40
2022-11-07T16:41:45.789Z,17.30
2022-11-07T16:42:47.942Z,17.40
2022-11-07T16:43:51.211Z,17.30
2022-11-07T16:44:54.463Z,17.30
2022-11-07T16:45:58.297Z,17.20
2022-11-07T16:47:01.819Z,17.20
2022-11-07T16:48:05.609Z,17.20
2022-11-07T16:49:16.377Z,17.20
2022-11-07T16:50:19.656Z,17.20
2022-11-07T16:51:23.791Z,17.20
2022-11-07T16:52:29.277Z,17.30
2022-11-07T16:53:32.386Z,17.30
2022-11-07T16:54:34.556Z,17.30
2022-11-07T16:55:40.055Z,17.30
2022-11-07T16:56:43.196Z,17.20
2022-11-07T16:57:47.181Z,17.20
2022-11-07T16:58:49.449Z,17.20
2022-11-07T16:59:52.901Z,17.20
2022-11-07T17:00:56.898Z,17.30
2022-11-07T17:02:00.337Z,17.20
2022-11-07T17:03:03.661Z,17.30
2022-11-07T17:04:08.112Z,17.30
2022-11-07T17:05:11.436Z,17.30
2022-11-07T17:06:21.033Z,17.30
2022-11-07T17:07:23.857Z,17.20
2022-11-07T17:08:36.178Z,17.20
2022-11-07T17:09:38.447Z,17.20
2022-11-07T17:10:41.577Z,17.20
2022-11-07T17:11:44.994Z,17.20
2022-11-07T17:12:47.211Z,17.20
2022-11-07T17:13:50.502Z,17.20
2022-11-07T17:14:53.984Z,17.20
2022-11-07T17:15:58.181Z,17.20
2022-11-07T17:17:03.912Z,17.20
2022-11-07T17:18:08.383Z,17.20
2022-11-07T17:19:14.916Z,17.20
2022-11-07T17:20:41.132Z,17.20
2022-11-07T17:21:49.319Z,17.20
2022-11-07T17:22:51.534Z,17.30
2022-11-07T17:23:58.297Z,17.20
2022-11-07T17:25:01.428Z,17.30
2022-11-07T17:26:03.620Z,17.30
2022-11-07T17:27:21.551Z,17.30
2022-11-07T17:28:23.738Z,17.30
2022-11-07T17:29:27.792Z,17.30
2022-11-07T17:30:30.024Z,17.30
2022-11-07T17:31:33.178Z,17.30
2022-11-07T17:32:36.334Z,17.30
2022-11-07T17:33:38.534Z,17.30
2022-11-07T17:34:41.823Z,17.30
2022-11-07T17:35:45.415Z,17.30
2022-11-07T17:36:52.066Z,17.30
2022-11-07T17:37:55.346Z,17.20
2022-11-07T17:39:01.699Z,17.20
2022-11-07T17:40:06.846Z,17.20
2022-11-07T17:41:20.028Z,17.20
2022-11-07T17:42:23.686Z,17.20
2022-11-07T17:43:27.371Z,17.20
2022-11-07T17:44:30.539Z,17.20
2022-11-07T17:45:34.022Z,17.20
2022-11-07T17:46:41.113Z,17.20
2022-11-07T17:47:43.220Z,17.20
2022-11-07T17:48:47.486Z,17.20
2022-11-07T17:49:50.703Z,17.20
2022-11-07T17:50:52.797Z,17.20
2022-11-07T17:51:56.363Z,17.20
2022-11-07T17:52:59.474Z,17.20
2022-11-07T17:54:03.238Z,17.20
2022-11-07T17:55:07.506Z,17.20
2022-11-07T17:56:18.038Z,17.20
2022-11-07T17:57:20.350Z,17.20
2022-11-07T17:58:33.090Z,17.30
2022-11-07T17:59:44.787Z,17.20
2022-11-07T18:00:48.961Z,17.20
2022-11-07T18:01:51.426Z,17.20
2022-11-07T18:02:55.180Z,17.20
2022-11-07T18:03:59.238Z,17.20
2022-11-07T18:05:01.442Z,17.20
2022-11-07T18:06:04.726Z,17.20
2022-11-07T18:07:07.859Z,17.20
2022-11-07T18:08:24.988Z,17.20
2022-11-07T18:09:35.123Z,17.20
2022-11-07T18:10:38.284Z,17.20
2022-11-07T18:11:40.392Z,17.20
2022-11-07T18:12:44.188Z,17.20
2022-11-07T18:13:47.680Z,17.20
2022-11-07T18:14:51.035Z,17.20
2022-11-07T18:15:53.230Z,17.20
2022-11-07T18:16:56.409Z,17.20
2022-11-07T18:17:59.660Z,17.20
2022-11-07T18:19:02.501Z,17.20
2022-11-07T18:20:07.210Z,17.10
2022-11-07T18:21:14.034Z,17.20
2022-11-07T18:22:17.221Z,17.20
2022-11-07T18:24:25.114Z,17.20
2022-11-07T18:25:30.990Z,17.10
2022-11-07T18:26:35.302Z,17.10
2022-11-07T18:27:37.404Z,17.20
2022-11-07T18:28:42.622Z,17.10
2022-11-07T18:29:45.756Z,17.20
2022-11-07T18:31:31.648Z,17.10
2022-11-07T18:34:29.334Z,17.10
2022-11-07T18:35:31.458Z,17.10
2022-11-07T18:36:37.764Z,17.10
2022-11-07T18:37:40.044Z,17.10
2022-11-07T18:39:02.799Z,17.10
2022-11-07T18:40:06.992Z,17.10
2022-11-07T18:41:15.315Z,17.10
2022-11-07T18:42:18.471Z,17.10
2022-11-07T18:43:20.569Z,17.00
2022-11-07T18:44:23.938Z,17.00
2022-11-07T18:45:26.306Z,17.00
2022-11-07T18:46:29.488Z,17.00
2022-11-07T18:47:33.858Z,17.00
2022-11-07T18:48:37.947Z,17.00
2022-11-07T18:49:41.130Z,17.00
2022-11-07T18:50:50.508Z,17.00
2022-11-07T18:51:54.515Z,17.00
2022-11-07T18:53:05.016Z,17.00
2022-11-07T18:54:08.343Z,17.00
2022-11-07T18:56:31.213Z,17.00
2022-11-07T18:57:34.386Z,17.00
2022-11-07T18:58:37.647Z,16.90
2022-11-07T18:59:40.752Z,16.90
2022-11-07T19:00:45.510Z,16.90
2022-11-07T19:01:48.865Z,16.90
2022-11-07T19:02:51.666Z,16.90
2022-11-07T19:03:56.508Z,16.90
2022-11-07T19:04:59.958Z,16.90
2022-11-07T19:06:07.528Z,16.90
2022-11-07T19:07:10.792Z,16.90
2022-11-07T19:08:14.174Z,16.90
2022-11-07T19:09:16.574Z,16.90
2022-11-07T19:10:20.080Z,16.90
2022-11-07T19:11:25.747Z,16.90
2022-11-07T19:12:30.787Z,16.90
2022-11-07T19:13:37.123Z,16.90
2022-11-07T19:14:40.202Z,16.90
2022-11-07T19:15:42.398Z,16.90
2022-11-07T19:16:45.509Z,16.90
2022-11-07T19:17:48.620Z,16.90
2022-11-07T19:18:52.788Z,16.90
2022-11-07T19:21:41.396Z,16.90
2022-11-07T19:22:46.823Z,16.90
2022-11-07T19:24:54.948Z,16.90
2022-11-07T19:25:58.274Z,16.90
2022-11-07T19:27:01.944Z,16.80
2022-11-07T19:28:07.109Z,16.80
2022-11-07T19:29:10.007Z,16.80
2022-11-07T19:30:14.940Z,16.80
2022-11-07T19:31:17.372Z,16.80
2022-11-07T19:32:20.481Z,16.80
2022-11-07T19:33:23.665Z,16.80
2022-11-07T19:34:26.969Z,16.80
2022-11-07T19:35:29.209Z,16.80
2022-11-07T19:36:32.958Z,16.80
2022-11-07T19:37:35.097Z,16.80
2022-11-07T19:38:38.532Z,16.80
2022-11-07T19:39:41.665Z,16.80
2022-11-07T19:40:49.159Z,16.90
2022-11-07T19:41:52.489Z,16.80
2022-11-07T19:42:56.235Z,16.80
2022-11-07T19:44:04.182Z,16.80
2022-11-07T19:45:07.263Z,16.80
2022-11-07T19:46:14.410Z,16.80
2022-11-07T19:47:17.603Z,16.80
2022-11-07T19:48:20.251Z,16.80
2022-11-07T19:49:23.422Z,16.80
2022-11-07T19:50:25.611Z,16.80
2022-11-07T19:51:28.835Z,16.80
2022-11-07T19:52:31.945Z,16.80
2022-11-07T19:53:34.134Z,16.80
2022-11-07T19:54:37.410Z,16.80
2022-11-07T19:55:39.567Z,16.80
2022-11-07T19:56:43.025Z,16.80
2022-11-07T19:57:45.160Z,16.80
2022-11-07T19:58:48.364Z,16.80
2022-11-07T19:59:52.619Z,16.80
2022-11-07T20:00:55.825Z,16.90
2022-11-07T20:02:30.508Z,16.80
2022-11-07T20:03:22.431Z,16.80
2022-11-07T20:04:25.889Z,16.80
2022-11-07T20:05:34.098Z,16.90
2022-11-07T20:06:39.583Z,16.80
2022-11-07T20:07:42.706Z,16.90
2022-11-07T20:08:46.388Z,16.80
2022-11-07T20:09:49.839Z,16.80
2022-11-07T20:10:52.054Z,16.80
2022-11-07T20:11:55.224Z,16.80
2022-11-07T20:12:58.423Z,16.80
2022-11-07T20:14:03.617Z,16.70
2022-11-07T20:15:10.316Z,16.70
2022-11-07T20:16:14.742Z,16.70
2022-11-07T20:17:16.907Z,16.70
2022-11-07T20:18:20.035Z,16.70
2022-11-07T20:19:23.198Z,16.70
2022-11-07T20:20:25.321Z,16.70
2022-11-07T20:21:29.234Z,16.70
2022-11-07T20:22:31.360Z,16.70
2022-11-07T20:23:35.351Z,16.60
2022-11-07T20:24:37.677Z,16.60
2022-11-07T20:25:42.148Z,16.60
2022-11-07T20:26:45.880Z,16.60
2022-11-07T20:27:49.145Z,16.60
2022-11-07T20:28:52.131Z,16.60